createdAt,value
2022-08-22T00:00:08.250Z,19.04
2022-08-22T00:01:10.857Z,19.04
2022-08-22T00:02:03.584Z,19.04
2022-08-22T00:02:55.492Z,19.42
2022-08-22T00:03:07.734Z,19.19
2022-08-22T00:04:10.171Z,19.00
2022-08-22T00:05:10.210Z,19.00
2022-08-22T00:06:00.253Z,19.00
2022-08-22T00:07:10.181Z,19.00
2022-08-22T00:08:01.271Z,19.00
2022-08-22T00:09:10.165Z,18.95
2022-08-22T00:10:03.703Z,18.95
2022-08-22T00:11:03.582Z,18.95
2022-08-22T00:12:05.248Z,18.95
2022-08-22T00:13:03.546Z,18.95
2022-08-22T00:14:10.165Z,18.89
2022-08-22T00:15:07.903Z,18.89
2022-08-22T00:16:00.610Z,18.89
2022-08-22T00:17:03.538Z,18.89
2022-08-22T00:18:10.177Z,18.89
2022-08-22T00:19:00.251Z,18.86
2022-08-22T00:20:10.213Z,18.86
2022-08-22T00:21:10.180Z,18.86
2022-08-22T00:22:00.242Z,18.86
2022-08-22T00:23:10.160Z,18.86
2022-08-22T00:24:10.165Z,18.82
2022-08-22T00:25:03.515Z,18.82
2022-08-22T00:26:02.869Z,18.82
2022-08-22T00:27:10.174Z,18.82
2022-08-22T00:28:10.154Z,18.82
2022-08-22T00:29:02.819Z,18.76
2022-08-22T00:30:03.540Z,18.76
2022-08-22T00:31:08.256Z,18.76
2022-08-22T00:32:05.468Z,18.76
2022-08-22T00:33:04.124Z,18.76
2022-08-22T00:34:10.191Z,18.73
2022-08-22T00:35:04.572Z,18.73
2022-08-22T00:36:10.159Z,18.73
2022-08-22T00:37:10.158Z,18.73
2022-08-22T00:38:06.209Z,18.73
2022-08-22T00:39:00.244Z,18.69
2022-08-22T00:40:10.184Z,18.69
2022-08-22T00:41:00.236Z,18.69
2022-08-22T00:42:01.301Z,18.69
2022-08-22T00:43:10.179Z,18.69
2022-08-22T00:44:10.155Z,18.65
2022-08-22T00:45:00.287Z,18.65
2022-08-22T00:46:10.185Z,18.65
2022-08-22T00:47:03.597Z,18.65
2022-08-22T00:48:03.554Z,18.65
2022-08-22T00:49:07.798Z,18.60
2022-08-22T00:50:10.157Z,18.60
2022-08-22T00:51:01.283Z,18.60
2022-08-22T00:52:00.241Z,18.60
2022-08-22T00:53:00.251Z,18.60
2022-08-22T00:54:00.241Z,18.58
2022-08-22T00:55:01.282Z,18.58
2022-08-22T00:56:01.268Z,18.58
2022-08-22T00:57:00.243Z,18.58
2022-08-22T00:58:00.318Z,18.58
2022-08-22T00:59:18.078Z,18.54
2022-08-22T01:00:03.327Z,18.54
2022-08-22T01:01:09.477Z,18.54
2022-08-22T01:02:01.270Z,18.54
2022-08-22T01:03:10.161Z,18.54
2022-08-22T01:04:09.989Z,18.52
2022-08-22T01:05:01.272Z,18.52
2022-08-22T01:06:06.869Z,18.52
2022-08-22T01:07:01.272Z,18.52
2022-08-22T01:08:10.164Z,18.52
2022-08-22T01:09:03.918Z,18.45
2022-08-22T01:10:10.177Z,18.45
2022-08-22T01:11:10.175Z,18.45
2022-08-22T01:12:03.581Z,18.45
2022-08-22T01:13:10.167Z,18.45
2022-08-22T01:14:10.165Z,18.39
2022-08-22T01:15:04.499Z,18.39
2022-08-22T01:16:09.144Z,18.39
2022-08-22T01:17:07.734Z,18.39
2022-08-22T01:18:10.159Z,18.39
2022-08-22T01:19:10.167Z,18.34
2022-08-22T01:20:10.179Z,18.34
2022-08-22T01:21:10.180Z,18.34
2022-08-22T01:22:10.176Z,18.34
2022-08-22T01:23:01.263Z,18.34
2022-08-22T01:24:03.537Z,18.29
2022-08-22T01:25:10.174Z,18.29
2022-08-22T01:26:10.152Z,18.29
2022-08-22T01:27:10.649Z,18.29
2022-08-22T01:28:00.387Z,18.29
2022-08-22T01:29:01.264Z,18.22
2022-08-22T01:30:01.271Z,18.22
2022-08-22T01:31:00.377Z,18.22
2022-08-22T01:32:10.164Z,18.22
2022-08-22T01:33:10.208Z,18.22
2022-08-22T01:34:12.860Z,18.19
2022-08-22T01:35:10.178Z,18.19
2022-08-22T01:36:10.165Z,18.19
2022-08-22T01:37:00.284Z,18.19
2022-08-22T01:38:01.278Z,18.19
2022-08-22T01:39:01.280Z,18.14
2022-08-22T01:40:03.589Z,18.14
2022-08-22T01:41:00.276Z,18.14
2022-08-22T01:42:10.163Z,18.14
2022-08-22T01:43:06.184Z,18.14
2022-08-22T01:44:01.330Z,18.08
2022-08-22T01:45:01.278Z,18.08
2022-08-22T01:46:07.699Z,18.08
2022-08-22T01:47:04.923Z,18.08
2022-08-22T01:48:10.178Z,18.08
2022-08-22T01:49:10.159Z,18.08
2022-08-22T01:50:08.396Z,18.08
2022-08-22T01:51:10.168Z,18.08
2022-08-22T01:52:01.269Z,18.08
2022-08-22T01:53:05.037Z,18.08
2022-08-22T01:54:04.551Z,18.06
2022-08-22T01:55:04.924Z,18.06
2022-08-22T01:56:05.039Z,18.06
2022-08-22T01:57:01.843Z,18.06
2022-08-22T01:58:03.320Z,18.06
2022-08-22T01:59:10.862Z,17.99
2022-08-22T02:00:00.748Z,17.99
2022-08-22T02:01:07.961Z,17.99
2022-08-22T02:02:10.173Z,17.99
2022-08-22T02:03:06.918Z,17.99
2022-08-22T02:04:08.752Z,17.96
2022-08-22T02:05:07.659Z,17.96
2022-08-22T02:06:04.243Z,17.96
2022-08-22T02:07:10.164Z,17.96
2022-08-22T02:08:02.821Z,17.96
2022-08-22T02:09:05.643Z,17.94
2022-08-22T02:10:07.693Z,17.94
2022-08-22T02:11:01.270Z,17.94
2022-08-22T02:12:14.332Z,17.94
2022-08-22T02:13:10.162Z,17.94
2022-08-22T02:14:10.174Z,17.91
2022-08-22T02:15:10.191Z,17.91
2022-08-22T02:16:05.531Z,17.91
2022-08-22T02:17:07.783Z,17.91
2022-08-22T02:18:10.214Z,17.91
2022-08-22T02:19:10.156Z,17.90
2022-08-22T02:20:10.200Z,17.90
2022-08-22T02:21:03.602Z,17.90
2022-08-22T02:22:01.269Z,17.90
2022-08-22T02:23:10.178Z,17.90
2022-08-22T02:24:10.159Z,17.89
2022-08-22T02:25:10.173Z,17.89
2022-08-22T02:26:00.255Z,17.89
2022-08-22T02:27:10.176Z,17.89
2022-08-22T02:28:01.366Z,17.89
2022-08-22T02:29:06.625Z,17.84
2022-08-22T02:30:10.169Z,17.84
2022-08-22T02:31:00.298Z,17.84
2022-08-22T02:32:08.419Z,17.84
2022-08-22T02:33:06.228Z,17.84
2022-08-22T02:34:02.078Z,17.79
2022-08-22T02:35:10.191Z,17.79
2022-08-22T02:36:06.044Z,17.79
2022-08-22T02:37:10.165Z,17.79
2022-08-22T02:38:10.175Z,17.79
2022-08-22T02:39:10.174Z,17.77
2022-08-22T02:40:00.326Z,17.77
2022-08-22T02:41:03.516Z,17.77
2022-08-22T02:42:10.182Z,17.77
2022-08-22T02:43:01.310Z,17.77
2022-08-22T02:44:04.812Z,17.72
2022-08-22T02:45:10.206Z,17.72
2022-08-22T02:46:04.426Z,17.72
2022-08-22T02:47:10.188Z,17.72
2022-08-22T02:48:05.375Z,17.72
2022-08-22T02:49:06.456Z,17.69
2022-08-22T02:50:03.545Z,17.69
2022-08-22T02:51:07.587Z,17.69
2022-08-22T02:52:03.520Z,17.69
2022-08-22T02:53:03.526Z,17.69
2022-08-22T02:54:10.178Z,17.64
2022-08-22T02:55:05.496Z,17.64
2022-08-22T02:56:05.008Z,17.64
2022-08-22T02:57:04.829Z,17.64
2022-08-22T02:58:00.513Z,17.64
2022-08-22T02:59:10.201Z,17.59
2022-08-22T03:00:30.779Z,17.59
2022-08-22T03:01:01.387Z,17.59
2022-08-22T03:02:10.167Z,17.59
2022-08-22T03:03:10.166Z,17.59
2022-08-22T03:04:10.188Z,17.55
2022-08-22T03:05:10.210Z,17.55
2022-08-22T03:06:04.010Z,17.55
2022-08-22T03:07:10.187Z,17.55
2022-08-22T03:08:03.576Z,17.55
2022-08-22T03:09:05.776Z,17.48
2022-08-22T03:10:10.175Z,17.48
2022-08-22T03:11:06.265Z,17.48
2022-08-22T03:12:06.402Z,17.48
2022-08-22T03:13:06.311Z,17.48
2022-08-22T03:14:10.175Z,17.37
2022-08-22T03:15:05.051Z,17.37
2022-08-22T03:16:06.169Z,17.37
2022-08-22T03:17:05.576Z,17.37
2022-08-22T03:18:03.573Z,17.37
2022-08-22T03:19:07.717Z,17.33
2022-08-22T03:20:03.575Z,17.33
2022-08-22T03:21:10.178Z,17.33
2022-08-22T03:22:04.345Z,17.33
2022-08-22T03:23:04.624Z,17.33
2022-08-22T03:24:05.012Z,17.30
2022-08-22T03:25:10.171Z,17.30
2022-08-22T03:26:00.248Z,17.30
2022-08-22T03:27:05.030Z,17.30
2022-08-22T03:28:10.193Z,17.30
2022-08-22T03:29:04.747Z,17.26
2022-08-22T03:30:04.734Z,17.26
2022-08-22T03:31:10.030Z,17.26
2022-08-22T03:32:07.808Z,17.26
2022-08-22T03:33:10.180Z,17.26
2022-08-22T03:34:10.164Z,17.18
2022-08-22T03:35:01.724Z,17.18
2022-08-22T03:36:01.274Z,17.18
2022-08-22T03:37:01.287Z,17.18
2022-08-22T03:38:10.167Z,17.18
2022-08-22T03:39:17.482Z,17.14
2022-08-22T03:40:05.875Z,17.14
2022-08-22T03:41:10.159Z,17.14
2022-08-22T03:42:10.175Z,17.14
2022-08-22T03:43:10.169Z,17.14
2022-08-22T03:44:07.614Z,17.10
2022-08-22T03:45:07.796Z,17.10
2022-08-22T03:46:10.187Z,17.10
2022-08-22T03:47:10.162Z,17.10
2022-08-22T03:48:10.203Z,17.10
2022-08-22T03:49:01.268Z,17.05
2022-08-22T03:50:10.187Z,17.05
2022-08-22T03:51:07.714Z,17.05
2022-08-22T03:52:10.160Z,17.05
2022-08-22T03:53:15.460Z,17.05
2022-08-22T03:54:00.262Z,17.02
2022-08-22T03:55:08.067Z,17.02
2022-08-22T03:56:10.168Z,17.02
2022-08-22T03:57:03.517Z,17.02
2022-08-22T03:58:12.013Z,17.02
2022-08-22T03:59:00.264Z,16.96
2022-08-22T04:00:08.072Z,16.96
2022-08-22T04:01:00.320Z,16.96
2022-08-22T04:02:33.439Z,16.96
2022-08-22T04:03:10.170Z,16.96
2022-08-22T04:04:10.182Z,16.91
2022-08-22T04:05:10.195Z,16.91
2022-08-22T04:06:11.597Z,16.91
2022-08-22T04:07:15.809Z,16.91
2022-08-22T04:08:03.533Z,16.91
2022-08-22T04:09:03.562Z,16.88
2022-08-22T04:10:01.278Z,16.88
2022-08-22T04:11:10.176Z,16.88
2022-08-22T04:12:10.171Z,16.88
2022-08-22T04:13:10.151Z,16.88
2022-08-22T04:14:03.515Z,16.83
2022-08-22T04:15:00.243Z,16.83
2022-08-22T04:16:10.195Z,16.83
2022-08-22T04:17:10.337Z,16.83
2022-08-22T04:18:10.172Z,16.83
2022-08-22T04:19:10.163Z,16.78
2022-08-22T04:20:10.187Z,16.78
2022-08-22T04:21:01.272Z,16.78
2022-08-22T04:22:01.277Z,16.78
2022-08-22T04:23:10.165Z,16.78
2022-08-22T04:24:07.632Z,16.74
2022-08-22T04:25:10.218Z,16.74
2022-08-22T04:26:04.366Z,16.74
2022-08-22T04:27:04.845Z,16.74
2022-08-22T04:28:00.334Z,16.74
2022-08-22T04:29:07.109Z,16.70
2022-08-22T04:30:10.170Z,16.70
2022-08-22T04:31:09.370Z,16.70
2022-08-22T04:32:14.407Z,16.70
2022-08-22T04:33:09.973Z,16.70
2022-08-22T04:34:04.723Z,16.66
2022-08-22T04:35:07.818Z,16.66
2022-08-22T04:36:00.250Z,16.66
2022-08-22T04:37:03.185Z,16.66
2022-08-22T04:38:00.459Z,16.66
2022-08-22T04:39:04.065Z,16.65
2022-08-22T04:40:06.045Z,16.65
2022-08-22T04:41:04.855Z,16.65
2022-08-22T04:42:29.216Z,16.65
2022-08-22T04:43:03.677Z,16.65
2022-08-22T04:44:04.684Z,16.64
2022-08-22T04:45:04.773Z,16.64
2022-08-22T04:46:04.975Z,16.64
2022-08-22T04:47:07.315Z,16.64
2022-08-22T04:48:04.807Z,16.64
2022-08-22T04:49:10.181Z,16.60
2022-08-22T04:50:04.759Z,16.60
2022-08-22T04:51:03.312Z,16.60
2022-08-22T04:52:09.911Z,16.60
2022-08-22T04:53:07.712Z,16.60
2022-08-22T04:54:00.250Z,16.53
2022-08-22T04:55:01.276Z,16.53
2022-08-22T04:56:07.998Z,16.53
2022-08-22T04:57:03.538Z,16.53
2022-08-22T04:58:10.173Z,16.53
2022-08-22T04:59:07.860Z,16.47
2022-08-22T05:00:02.601Z,16.47
2022-08-22T05:01:10.196Z,16.47
2022-08-22T05:02:01.643Z,16.47
2022-08-22T05:03:00.965Z,16.47
2022-08-22T05:04:02.047Z,16.44
2022-08-22T05:05:02.607Z,16.44
2022-08-22T05:06:01.865Z,16.44
2022-08-22T05:07:06.182Z,16.44
2022-08-22T05:08:01.186Z,16.44
2022-08-22T05:09:04.324Z,16.42
2022-08-22T05:10:11.625Z,16.42
2022-08-22T05:11:03.113Z,16.42
2022-08-22T05:12:02.844Z,16.42
2022-08-22T05:13:02.110Z,16.42
2022-08-22T05:14:02.847Z,16.41
2022-08-22T05:15:06.228Z,16.41
2022-08-22T05:16:03.383Z,16.41
2022-08-22T05:17:00.752Z,16.41
2022-08-22T05:18:04.950Z,16.41
2022-08-22T05:19:03.716Z,16.40
2022-08-22T05:20:04.876Z,16.40
2022-08-22T05:21:02.949Z,16.40
2022-08-22T05:22:00.931Z,16.40
2022-08-22T05:23:05.931Z,16.40
2022-08-22T05:24:00.280Z,16.37
2022-08-22T05:25:02.310Z,16.37
2022-08-22T05:26:01.684Z,16.37
2022-08-22T05:27:09.507Z,16.37
2022-08-22T05:28:10.179Z,16.37
2022-08-22T05:29:01.763Z,16.36
2022-08-22T05:30:06.151Z,16.36
2022-08-22T05:31:04.657Z,16.36
2022-08-22T05:32:04.160Z,16.36
2022-08-22T05:33:05.402Z,16.36
2022-08-22T05:34:03.846Z,16.38
2022-08-22T05:35:00.975Z,16.38
2022-08-22T05:36:03.642Z,16.38
2022-08-22T05:37:10.163Z,16.38
2022-08-22T05:38:01.531Z,16.38
2022-08-22T05:39:10.180Z,16.38
2022-08-22T05:40:00.719Z,16.38
2022-08-22T05:41:04.496Z,16.38
2022-08-22T05:42:01.343Z,16.38
2022-08-22T05:43:00.688Z,16.38
2022-08-22T05:44:00.687Z,16.39
2022-08-22T05:45:01.752Z,16.39
2022-08-22T05:46:01.281Z,16.39
2022-08-22T05:47:00.234Z,16.39
2022-08-22T05:48:10.238Z,16.39
2022-08-22T05:49:01.086Z,16.41
2022-08-22T05:50:04.175Z,16.41
2022-08-22T05:51:07.664Z,16.41
2022-08-22T05:52:10.204Z,16.41
2022-08-22T05:53:03.621Z,16.41
2022-08-22T05:54:10.193Z,16.48
2022-08-22T05:55:06.222Z,16.48
2022-08-22T05:56:03.605Z,16.48
2022-08-22T05:57:10.163Z,16.48
2022-08-22T05:58:10.204Z,16.48
2022-08-22T05:59:08.130Z,16.54
2022-08-22T06:00:04.342Z,16.54
2022-08-22T06:01:10.206Z,16.54
2022-08-22T06:02:10.233Z,16.54
2022-08-22T06:03:00.264Z,16.54
2022-08-22T06:04:03.525Z,16.72
2022-08-22T06:05:03.004Z,16.72
2022-08-22T06:06:01.947Z,16.72
2022-08-22T06:07:07.370Z,16.72
2022-08-22T06:08:03.502Z,16.72
2022-08-22T06:09:03.702Z,17.05
2022-08-22T06:10:01.276Z,17.05
2022-08-22T06:11:05.587Z,17.05
2022-08-22T06:12:07.276Z,17.05
2022-08-22T06:13:04.465Z,17.05
2022-08-22T06:14:07.023Z,17.66
2022-08-22T06:15:00.274Z,17.66
2022-08-22T06:16:10.215Z,17.66
2022-08-22T06:17:06.416Z,17.66
2022-08-22T06:18:02.193Z,17.66
2022-08-22T06:19:02.174Z,18.78
2022-08-22T06:20:01.162Z,18.78
2022-08-22T06:21:03.543Z,18.78
2022-08-22T06:22:01.891Z,18.78
2022-08-22T06:23:01.356Z,18.78
2022-08-22T06:24:01.432Z,19.98
2022-08-22T06:25:05.788Z,19.98
2022-08-22T06:26:00.605Z,19.98
2022-08-22T06:27:03.838Z,19.98
2022-08-22T06:28:04.572Z,19.98
2022-08-22T06:29:01.350Z,20.94
2022-08-22T06:30:03.235Z,20.94
2022-08-22T06:31:01.195Z,20.94
2022-08-22T06:32:02.459Z,20.94
2022-08-22T06:33:02.187Z,20.94
2022-08-22T06:34:07.726Z,20.64
2022-08-22T06:35:02.927Z,20.64
2022-08-22T06:36:03.564Z,20.64
2022-08-22T06:37:03.276Z,20.64
2022-08-22T06:38:00.553Z,20.64
2022-08-22T06:39:10.195Z,20.70
2022-08-22T06:40:02.482Z,20.70
2022-08-22T06:41:02.385Z,20.70
2022-08-22T06:42:03.632Z,20.70
2022-08-22T06:43:00.666Z,20.70
2022-08-22T06:44:01.070Z,20.66
2022-08-22T06:45:03.626Z,20.66
2022-08-22T06:46:00.435Z,20.66
2022-08-22T06:47:02.241Z,20.66
2022-08-22T06:48:07.847Z,20.66
2022-08-22T06:49:01.034Z,20.10
2022-08-22T06:50:04.624Z,20.10
2022-08-22T06:51:00.498Z,20.10
2022-08-22T06:52:02.049Z,20.10
2022-08-22T06:53:05.985Z,20.10
2022-08-22T06:54:02.789Z,19.74
2022-08-22T06:55:03.536Z,19.74
2022-08-22T06:56:01.920Z,19.74
2022-08-22T06:57:02.041Z,19.74
2022-08-22T06:58:03.561Z,19.74
2022-08-22T06:59:01.855Z,19.49
2022-08-22T07:00:03.965Z,19.49
2022-08-22T07:01:11.050Z,19.49
2022-08-22T07:02:02.984Z,19.49
2022-08-22T07:03:10.187Z,19.49
2022-08-22T07:04:05.428Z,19.40
2022-08-22T07:05:00.642Z,19.40
2022-08-22T07:06:00.733Z,19.40
2022-08-22T07:07:01.102Z,19.40
2022-08-22T07:08:04.739Z,19.40
2022-08-22T07:09:00.466Z,19.35
2022-08-22T07:10:00.345Z,19.35
2022-08-22T07:11:10.201Z,19.35
2022-08-22T07:12:02.483Z,19.35
2022-08-22T07:13:00.311Z,19.35
2022-08-22T07:14:02.474Z,19.30
2022-08-22T07:15:08.435Z,19.30
2022-08-22T07:16:03.830Z,19.30
2022-08-22T07:17:01.747Z,19.30
2022-08-22T07:18:02.369Z,19.30
2022-08-22T07:19:00.392Z,19.35
2022-08-22T07:20:07.422Z,19.35
2022-08-22T07:21:02.025Z,19.35
2022-08-22T07:22:09.955Z,19.35
2022-08-22T07:23:03.329Z,19.35
2022-08-22T07:24:00.339Z,19.39
2022-08-22T07:25:01.324Z,19.39
2022-08-22T07:26:10.166Z,19.39
2022-08-22T07:27:04.827Z,19.39
2022-08-22T07:28:14.550Z,19.39
2022-08-22T07:29:00.300Z,19.48
2022-08-22T07:30:06.000Z,19.48
2022-08-22T07:31:03.777Z,19.48
2022-08-22T07:32:00.254Z,19.48
2022-08-22T07:33:25.776Z,19.48
2022-08-22T07:34:10.204Z,19.60
2022-08-22T07:35:01.251Z,19.60
2022-08-22T07:36:05.202Z,19.60
2022-08-22T07:37:05.850Z,19.60
2022-08-22T07:38:06.070Z,19.60
2022-08-22T07:39:11.063Z,19.68
2022-08-22T07:40:08.079Z,19.68
2022-08-22T07:41:10.174Z,19.68
2022-08-22T07:42:00.256Z,19.68
2022-08-22T07:43:10.193Z,19.68
2022-08-22T07:44:10.166Z,19.72
2022-08-22T07:45:01.282Z,19.72
2022-08-22T07:46:08.349Z,19.72
2022-08-22T07:47:05.697Z,19.72
2022-08-22T07:48:00.522Z,19.72
2022-08-22T07:49:10.336Z,19.70
2022-08-22T07:50:01.945Z,19.70
2022-08-22T07:51:03.305Z,19.70
2022-08-22T07:52:03.196Z,19.70
2022-08-22T07:53:04.733Z,19.70
2022-08-22T07:54:00.905Z,19.87
2022-08-22T07:55:07.634Z,19.87
2022-08-22T07:56:01.548Z,19.87
2022-08-22T07:57:04.416Z,19.87
2022-08-22T07:58:03.990Z,19.87
2022-08-22T07:59:09.430Z,20.01
2022-08-22T08:00:02.520Z,20.01
2022-08-22T08:01:00.648Z,20.01
2022-08-22T08:02:03.658Z,20.01
2022-08-22T08:03:01.795Z,20.01
2022-08-22T08:04:02.895Z,20.12
2022-08-22T08:05:00.577Z,20.12
2022-08-22T08:06:00.837Z,20.12
2022-08-22T08:07:01.336Z,20.12
2022-08-22T08:08:03.331Z,20.12
2022-08-22T08:09:00.793Z,20.24
2022-08-22T08:10:08.935Z,20.24
2022-08-22T08:11:01.817Z,20.24
2022-08-22T08:12:02.728Z,20.24
2022-08-22T08:13:03.838Z,20.24
2022-08-22T08:14:03.034Z,20.19
2022-08-22T08:15:01.447Z,20.19
2022-08-22T08:16:00.995Z,20.19
2022-08-22T08:17:00.244Z,20.19
2022-08-22T08:18:03.667Z,20.19
2022-08-22T08:19:01.303Z,20.28
2022-08-22T08:20:05.481Z,20.28
2022-08-22T08:21:03.673Z,20.28
2022-08-22T08:22:00.650Z,20.28
2022-08-22T08:23:00.982Z,20.28
2022-08-22T08:24:00.952Z,20.37
2022-08-22T08:25:01.258Z,20.37
2022-08-22T08:26:04.318Z,20.37
2022-08-22T08:27:01.782Z,20.37
2022-08-22T08:28:00.399Z,20.37
2022-08-22T08:29:01.673Z,20.36
2022-08-22T08:30:04.044Z,20.36
2022-08-22T08:31:05.252Z,20.36
2022-08-22T08:32:00.497Z,20.36
2022-08-22T08:33:24.295Z,20.36
2022-08-22T08:34:03.504Z,20.50
2022-08-22T08:35:03.557Z,20.50
2022-08-22T08:36:07.003Z,20.50
2022-08-22T08:37:04.124Z,20.50
2022-08-22T08:38:10.158Z,20.50
2022-08-22T08:39:05.873Z,20.67
2022-08-22T08:40:02.054Z,20.67
2022-08-22T08:41:03.531Z,20.67
2022-08-22T08:42:07.715Z,20.67
2022-08-22T08:43:10.753Z,20.67
2022-08-22T08:44:00.247Z,20.78
2022-08-22T08:45:05.060Z,20.78
2022-08-22T08:46:11.168Z,20.78
2022-08-22T08:47:10.175Z,20.78
2022-08-22T08:48:01.510Z,20.78
2022-08-22T08:49:01.269Z,20.84
2022-08-22T08:50:10.198Z,20.84
2022-08-22T08:51:10.173Z,20.84
2022-08-22T08:52:10.179Z,20.84
2022-08-22T08:53:10.187Z,20.84
2022-08-22T08:54:10.164Z,20.90
2022-08-22T08:55:16.039Z,20.90
2022-08-22T08:56:10.801Z,20.90
2022-08-22T08:57:08.110Z,20.90
2022-08-22T08:58:10.437Z,20.90
2022-08-22T08:59:10.456Z,21.01
2022-08-22T09:00:05.027Z,21.01
2022-08-22T09:01:07.045Z,21.01
2022-08-22T09:02:03.558Z,21.01
2022-08-22T09:03:00.281Z,21.01
2022-08-22T09:04:00.281Z,21.15
2022-08-22T09:05:10.165Z,21.15
2022-08-22T09:06:10.161Z,21.15
2022-08-22T09:07:10.157Z,21.15
2022-08-22T09:08:01.495Z,21.15
2022-08-22T09:09:06.589Z,21.33
2022-08-22T09:10:07.562Z,21.33
2022-08-22T09:11:03.525Z,21.33
2022-08-22T09:12:10.157Z,21.33
2022-08-22T09:14:00.250Z,21.42
2022-08-22T09:15:11.826Z,21.42
2022-08-22T09:17:10.158Z,21.42
2022-08-22T09:18:00.589Z,21.42
2022-08-22T09:19:00.258Z,21.58
2022-08-22T09:20:03.532Z,21.58
2022-08-22T09:21:01.266Z,21.58
2022-08-22T09:22:03.528Z,21.58
2022-08-22T09:23:10.954Z,21.58
2022-08-22T09:24:10.172Z,21.63
2022-08-22T09:25:01.266Z,21.63
2022-08-22T09:26:00.248Z,21.63
2022-08-22T09:27:08.491Z,21.63
2022-08-22T09:28:05.603Z,21.63
2022-08-22T09:29:03.535Z,21.66
2022-08-22T09:30:04.927Z,21.66
2022-08-22T09:31:00.242Z,21.66
2022-08-22T09:32:12.954Z,21.66
2022-08-22T09:33:08.684Z,21.66
2022-08-22T09:34:07.277Z,21.65
2022-08-22T09:35:00.249Z,21.65
2022-08-22T09:36:05.366Z,21.65
2022-08-22T09:37:13.985Z,21.65
2022-08-22T09:38:10.157Z,21.65
2022-08-22T09:39:10.159Z,21.70
2022-08-22T09:40:04.106Z,21.70
2022-08-22T09:40:16.168Z,21.42
2022-08-22T09:41:01.282Z,21.70
2022-08-22T09:42:00.243Z,21.70
2022-08-22T09:43:04.585Z,21.70
2022-08-22T09:44:10.171Z,21.79
2022-08-22T09:45:10.184Z,21.79
2022-08-22T09:46:07.835Z,21.79
2022-08-22T09:47:10.165Z,21.79
2022-08-22T09:48:07.588Z,21.79
2022-08-22T09:49:05.579Z,21.84
2022-08-22T09:50:10.215Z,21.84
2022-08-22T09:51:13.547Z,21.84
2022-08-22T09:52:05.137Z,21.84
2022-08-22T09:53:10.190Z,21.84
2022-08-22T09:54:10.217Z,21.88
2022-08-22T09:55:08.622Z,21.88
2022-08-22T09:56:15.155Z,21.88
2022-08-22T09:57:03.571Z,21.88
2022-08-22T09:58:03.554Z,21.88
2022-08-22T09:59:10.169Z,21.84
2022-08-22T10:00:10.218Z,21.84
2022-08-22T10:01:08.842Z,21.84
2022-08-22T10:02:06.013Z,21.84
2022-08-22T10:03:10.172Z,21.84
2022-08-22T10:04:10.191Z,21.85
2022-08-22T10:05:05.654Z,21.85
2022-08-22T10:06:03.783Z,21.85
2022-08-22T10:07:11.854Z,21.85
2022-08-22T10:08:01.277Z,21.85
2022-08-22T10:09:00.278Z,21.97
2022-08-22T10:10:00.744Z,21.97
2022-08-22T10:11:03.558Z,21.97
2022-08-22T10:12:03.379Z,21.97
2022-08-22T10:13:10.417Z,21.97
2022-08-22T10:14:10.172Z,22.11
2022-08-22T10:15:08.956Z,22.11
2022-08-22T10:16:01.268Z,22.11
2022-08-22T10:17:10.201Z,22.11
2022-08-22T10:18:06.986Z,22.11
2022-08-22T10:19:00.756Z,22.17
2022-08-22T10:20:10.229Z,22.17
2022-08-22T10:21:07.323Z,22.17
2022-08-22T10:22:10.181Z,22.17
2022-08-22T10:23:10.182Z,22.17
2022-08-22T10:24:10.223Z,22.23
2022-08-22T10:25:10.319Z,22.23
2022-08-22T10:26:10.192Z,22.23
2022-08-22T10:27:02.882Z,22.23
2022-08-22T10:28:10.529Z,22.23
2022-08-22T10:29:06.971Z,22.25
2022-08-22T10:30:10.176Z,22.25
2022-08-22T10:31:09.320Z,22.25
2022-08-22T10:32:10.823Z,22.25
2022-08-22T10:33:07.838Z,22.25
2022-08-22T10:34:01.275Z,22.35
2022-08-22T10:35:03.279Z,22.35
2022-08-22T10:36:06.568Z,22.35
2022-08-22T10:37:10.279Z,22.35
2022-08-22T10:38:03.663Z,22.35
2022-08-22T10:39:09.511Z,22.31
2022-08-22T10:40:03.593Z,22.31
2022-08-22T10:41:05.546Z,22.31
2022-08-22T10:42:07.427Z,22.31
2022-08-22T10:43:10.169Z,22.31
2022-08-22T10:44:05.479Z,22.42
2022-08-22T10:45:03.722Z,22.42
2022-08-22T10:46:02.762Z,22.42
2022-08-22T10:47:04.761Z,22.42
2022-08-22T10:48:08.628Z,22.42
2022-08-22T10:49:07.916Z,22.39
2022-08-22T10:50:11.528Z,22.39
2022-08-22T10:51:03.430Z,22.39
2022-08-22T10:52:15.703Z,22.39
2022-08-22T10:53:08.590Z,22.39
2022-08-22T10:54:03.568Z,22.48
2022-08-22T10:55:05.817Z,22.48
2022-08-22T10:56:09.467Z,22.48
2022-08-22T10:57:07.786Z,22.48
2022-08-22T10:58:07.598Z,22.48
2022-08-22T10:59:07.598Z,22.58
2022-08-22T11:00:00.342Z,22.58
2022-08-22T11:01:38.075Z,22.58
2022-08-22T11:02:10.234Z,22.58
2022-08-22T11:03:10.719Z,22.58
2022-08-22T11:04:05.284Z,22.61
2022-08-22T11:05:01.282Z,22.61
2022-08-22T11:06:03.857Z,22.61
2022-08-22T11:07:10.175Z,22.61
2022-08-22T11:08:03.532Z,22.61
2022-08-22T11:09:07.937Z,22.75
2022-08-22T11:10:03.331Z,22.75
2022-08-22T11:11:04.049Z,22.75
2022-08-22T11:12:02.602Z,22.75
2022-08-22T11:13:09.810Z,22.75
2022-08-22T11:14:10.165Z,22.94
2022-08-22T11:15:10.189Z,22.94
2022-08-22T11:16:10.161Z,22.94
2022-08-22T11:17:23.557Z,22.94
2022-08-22T11:18:01.295Z,22.94
2022-08-22T11:19:15.039Z,23.06
2022-08-22T11:20:09.177Z,23.06
2022-08-22T11:21:04.921Z,23.06
2022-08-22T11:22:10.160Z,23.06
2022-08-22T11:23:01.585Z,23.06
2022-08-22T11:24:17.758Z,23.06
2022-08-22T11:25:07.711Z,23.06
2022-08-22T11:26:07.579Z,23.06
2022-08-22T11:27:07.328Z,23.06
2022-08-22T11:28:00.245Z,23.06
2022-08-22T11:29:13.219Z,23.25
2022-08-22T11:30:00.258Z,23.25
2022-08-22T11:31:01.342Z,23.25
2022-08-22T11:32:06.051Z,23.25
2022-08-22T11:33:10.159Z,23.25
2022-08-22T11:34:10.298Z,23.41
2022-08-22T11:35:09.249Z,23.41
2022-08-22T11:36:10.175Z,23.41
2022-08-22T11:37:03.965Z,23.41
2022-08-22T11:38:01.298Z,23.41
2022-08-22T11:39:13.719Z,23.44
2022-08-22T11:40:04.115Z,23.44
2022-08-22T11:41:07.659Z,23.44
2022-08-22T11:42:00.259Z,23.44
2022-08-22T11:43:17.344Z,23.44
2022-08-22T11:44:00.247Z,23.52
2022-08-22T11:45:03.408Z,23.52
2022-08-22T11:46:05.154Z,23.52
2022-08-22T11:47:06.055Z,23.52
2022-08-22T11:48:06.022Z,23.52
2022-08-22T11:49:10.175Z,23.58
2022-08-22T11:50:13.419Z,23.58
2022-08-22T11:51:01.271Z,23.58
2022-08-22T11:52:03.548Z,23.58
2022-08-22T11:53:10.170Z,23.58
2022-08-22T11:54:00.272Z,23.54
2022-08-22T11:55:08.726Z,23.54
2022-08-22T11:56:01.283Z,23.54
2022-08-22T11:57:10.162Z,23.54
2022-08-22T11:58:10.167Z,23.54
2022-08-22T11:59:04.425Z,23.77
2022-08-22T12:00:10.092Z,23.77
2022-08-22T12:01:03.803Z,23.77
2022-08-22T12:02:03.922Z,23.77
2022-08-22T12:03:10.159Z,23.77
2022-08-22T12:04:10.198Z,24.01
2022-08-22T12:05:08.798Z,24.01
2022-08-22T12:06:07.654Z,24.01
2022-08-22T12:07:10.163Z,24.01
2022-08-22T12:08:07.739Z,24.01
2022-08-22T12:09:10.169Z,24.13
2022-08-22T12:10:04.216Z,24.13
2022-08-22T12:11:03.562Z,24.13
2022-08-22T12:12:10.168Z,24.13
2022-08-22T12:13:06.237Z,24.13
2022-08-22T12:14:06.340Z,24.27
2022-08-22T12:15:10.170Z,24.27
2022-08-22T12:16:01.328Z,24.27
2022-08-22T12:17:00.247Z,24.27
2022-08-22T12:18:01.508Z,24.27
2022-08-22T12:19:10.163Z,24.26
2022-08-22T12:20:16.574Z,24.26
2022-08-22T12:21:01.290Z,24.26
2022-08-22T12:22:10.191Z,24.26
2022-08-22T12:23:10.178Z,24.26
2022-08-22T12:24:06.100Z,24.04
2022-08-22T12:25:02.982Z,24.04
2022-08-22T12:26:01.298Z,24.04
2022-08-22T12:27:10.159Z,24.04
2022-08-22T12:28:01.298Z,24.04
2022-08-22T12:29:03.537Z,23.89
2022-08-22T12:30:00.245Z,23.89
2022-08-22T12:31:07.719Z,23.89
2022-08-22T12:32:01.297Z,23.89
2022-08-22T12:33:03.527Z,23.89
2022-08-22T12:34:01.274Z,24.03
2022-08-22T12:35:13.398Z,24.03
2022-08-22T12:36:03.525Z,24.03
2022-08-22T12:37:06.283Z,24.03
2022-08-22T12:38:00.294Z,24.03
2022-08-22T12:39:01.306Z,23.97
2022-08-22T12:40:10.254Z,23.97
2022-08-22T12:41:10.162Z,23.97
2022-08-22T12:42:10.163Z,23.97
2022-08-22T12:43:01.292Z,23.97
2022-08-22T12:44:16.055Z,23.97
2022-08-22T12:45:10.163Z,23.97
2022-08-22T12:46:13.188Z,23.97
2022-08-22T12:47:06.581Z,23.97
2022-08-22T12:48:07.620Z,23.97
2022-08-22T12:49:10.158Z,24.10
2022-08-22T12:50:10.173Z,24.10
2022-08-22T12:51:03.656Z,24.10
2022-08-22T12:52:10.164Z,24.10